Time;durP1;ratioP1;P1;durP2;ratioP2;P2;SDS_P1;SDS_P2;PMS_P1;PMS_P2;Temp;Humidity;BMP_temperature;BMP_pressure;BME280_temperature;BME280_humidity;BME280_pressure;Samples;Min_cycle;Max_cycle;Signal;HPM_P1;HPM_P2
2022/08/03 00:01:05;;;;;;;7.87;5.00;;;;;;;;;;5018830;28;20483;-76
2022/08/03 00:03:32;;;;;;;25.43;10.67;;;;;;;;;;5006994;28;20498;-76
2022/08/03 00:05:59;;;;;;;31.23;9.10;;;;;;;;;;5017014;28;20485;-77
2022/08/03 00:08:27;;;;;;;20.30;8.77;;;;;;;;;;5020714;28;21251;-77
2022/08/03 00:10:54;;;;;;;11.10;5.80;;;;;;;;;;5019900;28;20549;-76
2022/08/03 00:13:22;;;;;;;10.03;6.60;;;;;;;;;;5006289;28;20538;-77
2022/08/03 00:15:50;;;;;;;12.63;7.40;;;;;;;;;;5010507;28;20487;-78
2022/08/03 00:18:17;;;;;;;15.63;6.80;;;;;;;;;;5027410;28;20484;-78
2022/08/03 00:20:44;;;;;;;11.50;5.97;;;;;;;;;;5011462;28;20495;-78
2022/08/03 00:23:11;;;;;;;10.73;5.80;;;;;;;;;;5019741;28;20474;-78
2022/08/03 00:25:41;;;;;;;31.00;10.90;;;;;;;;;;5017292;28;20969;-78
2022/08/03 00:28:08;;;;;;;9.53;5.50;;;19.30;82.20;;;;;;5016970;28;20473;-78
2022/08/03 00:30:35;;;;;;;17.43;7.93;;;;;;;;;;5007379;28;20489;-78
2022/08/03 00:33:02;;;;;;;9.60;5.47;;;19.20;82.00;;;;;;5020022;28;20492;-77
2022/08/03 00:35:31;;;;;;;21.47;9.90;;;;;;;;;;5016872;28;20487;-78
2022/08/03 00:37:59;;;;;;;8.57;5.13;;;;;;;;;;5020477;28;20593;-77
2022/08/03 00:40:26;;;;;;;10.90;5.73;;;;;;;;;;5022541;28;20490;-77
2022/08/03 00:42:56;;;;;;;12.97;7.57;;;;;;;;;;5022992;28;20488;-76
2022/08/03 00:45:24;;;;;;;16.90;7.17;;;19.00;82.60;;;;;;5018678;28;20472;-77
2022/08/03 00:47:51;;;;;;;20.50;7.23;;;;;;;;;;5010814;28;20488;-77
2022/08/03 00:50:19;;;;;;;14.57;7.67;;;18.90;83.20;;;;;;5017767;28;20480;-78
2022/08/03 00:52:47;;;;;;;17.17;8.97;;;18.90;82.80;;;;;;5023280;28;20477;-77
2022/08/03 00:55:15;;;;;;;22.33;6.30;;;;;;;;;;5020559;28;20476;-77
2022/08/03 00:57:43;;;;;;;10.67;6.50;;;18.80;82.90;;;;;;5024210;28;21223;-77
2022/08/03 01:00:13;;;;;;;12.13;7.53;;;;;;;;;;5022956;28;20477;-77
2022/08/03 01:02:40;;;;;;;22.37;8.50;;;18.60;84.40;;;;;;5022739;28;20481;-77
2022/08/03 01:05:08;;;;;;;7.73;5.33;;;;;;;;;;5018924;28;20970;-78
2022/08/03 01:07:39;;;;;;;26.47;10.23;;;;;;;;;;5018553;28;20486;-77
2022/08/03 01:10:14;;;;;;;14.27;6.53;;;18.60;83.70;;;;;;5013862;28;21183;-77
2022/08/03 01:12:44;;;;;;;16.20;8.73;;;;;;;;;;5015117;28;20518;-77
2022/08/03 01:15:16;;;;;;;21.80;7.07;;;;;;;;;;5019490;28;20860;-77
2022/08/03 01:17:47;;;;;;;15.57;8.13;;;;;;;;;;5017227;28;20485;-78
2022/08/03 01:20:15;;;;;;;10.63;6.87;;;;;;;;;;5018665;28;20488;-77
2022/08/03 01:23:30;;;;;;;16.30;8.40;;;18.30;84.30;;;;;;5018943;28;21107;-77
2022/08/03 01:26:09;;;;;;;11.80;6.80;;;18.30;84.10;;;;;;5009151;28;20468;-77
2022/08/03 01:28:45;;;;;;;30.77;9.93;;;;;;;;;;5023339;28;20499;-76
2022/08/03 01:31:16;;;;;;;11.53;6.50;;;;;;;;;;5015885;28;20489;-77
2022/08/03 01:33:44;;;;;;;17.37;9.20;;;;;;;;;;5021241;28;20543;-77
2022/08/03 01:36:14;;;;;;;23.17;7.00;;;;;;;;;;5021553;28;20486;-76
2022/08/03 01:38:42;;;;;;;11.43;6.60;;;;;;;;;;5015679;28;20476;-76
2022/08/03 01:41:15;;;;;;;10.60;7.00;;;18.20;83.60;;;;;;5022202;28;20886;-77
2022/08/03 01:43:44;;;;;;;14.93;8.60;;;;;;;;;;5020560;28;20484;-74
2022/08/03 01:46:12;;;;;;;10.13;6.37;;;;;;;;;;5020554;28;20480;-77
2022/08/03 01:48:41;;;;;;;14.03;7.73;;;;;;;;;;5018494;28;20851;-77
2022/08/03 01:51:09;;;;;;;10.63;6.40;;;;;;;;;;5014809;28;20546;-77
2022/08/03 01:53:42;;;;;;;15.20;8.90;;;;;;;;;;5017332;28;20484;-76
2022/08/03 01:56:09;;;;;;;22.73;7.60;;;18.00;84.50;;;;;;5019056;28;20488;-76
2022/08/03 01:58:37;;;;;;;15.10;8.50;;;;;;;;;;5022495;28;20491;-76
2022/08/03 02:01:06;;;;;;;12.13;7.63;;;18.10;84.80;;;;;;5022042;28;20477;-75
2022/08/03 02:03:34;;;;;;;31.13;11.13;;;;;;;;;;5010226;28;20571;-76
2022/08/03 02:06:06;;;;;;;13.90;6.60;;;18.10;84.00;;;;;;5018360;28;20479;-78
2022/08/03 02:08:33;;;;;;;16.60;9.23;;;;;;;;;;5021956;28;20477;-77
2022/08/03 02:11:02;;;;;;;12.90;6.87;;;;;;;;;;5019675;28;20515;-77
2022/08/03 02:13:31;;;;;;;17.17;9.77;;;;;;;;;;5014370;28;20472;-77
2022/08/03 02:15:58;;;;;;;7.80;6.17;;;;;;;;;;5016119;28;20480;-79
2022/08/03 02:18:26;;;;;;;16.70;7.27;;;;;;;;;;5019067;28;20476;-78
2022/08/03 02:20:53;;;;;;;7.23;5.17;;;;;;;;;;5023361;28;20484;-77
2022/08/03 02:23:21;;;;;;;21.30;8.00;;;;;;;;;;5022090;28;20480;-77
2022/08/03 02:25:53;;;;;;;10.00;6.10;;;17.60;85.40;;;;;;5019063;28;20808;-77
2022/08/03 02:28:21;;;;;;;12.93;6.10;;;;;;;;;;5023059;28;21013;-76
2022/08/03 02:30:52;;;;;;;19.67;6.50;;;;;;;;;;5023005;28;20495;-76
2022/08/03 02:33:22;;;;;;;11.30;6.47;;;;;;;;;;5018880;28;20475;-77
2022/08/03 02:35:51;;;;;;;18.43;6.83;;;;;;;;;;5018655;28;21124;-76
2022/08/03 02:38:20;;;;;;;8.93;5.93;;;;;;;;;;5021562;28;20538;-76
2022/08/03 02:40:50;;;;;;;8.47;5.90;;;;;;;;;;5020569;28;20480;-75
2022/08/03 02:43:18;;;;;;;30.27;8.70;;;;;;;;;;5020195;28;20476;-76
2022/08/03 02:45:47;;;;;;;12.03;6.00;;;;;;;;;;5017811;28;20517;-76
2022/08/03 02:48:18;;;;;;;9.23;5.80;;;;;;;;;;5020881;28;20875;-76
2022/08/03 02:50:45;;;;;;;17.07;6.23;;;;;;;;;;5018430;28;21053;-76
2022/08/03 02:53:13;;;;;;;14.97;7.67;;;;;;;;;;5019828;28;20481;-77
2022/08/03 02:55:40;;;;;;;28.30;9.17;;;;;;;;;;5016103;28;20472;-76
2022/08/03 02:58:09;;;;;;;17.30;6.37;;;17.40;85.70;;;;;;5020348;28;20481;-76
2022/08/03 03:00:37;;;;;;;21.83;9.53;;;;;;;;;;5014962;28;21091;-76
2022/08/03 03:03:05;;;;;;;13.80;8.10;;;17.30;86.80;;;;;;5003781;28;20499;-76
2022/08/03 03:05:33;;;;;;;30.93;10.30;;;;;;;;;;4995958;28;20596;-76
2022/08/03 03:08:00;;;;;;;11.80;7.67;;;;;;;;;;4984253;28;20489;-76
2022/08/03 03:10:28;;;;;;;20.30;9.87;;;;;;;;;;5015450;28;20530;-77
2022/08/03 03:12:58;;;;;;;10.80;5.80;;;;;;;;;;5021735;28;20508;-77
2022/08/03 03:15:28;;;;;;;16.43;9.43;;;;;;;;;;4996239;28;20842;-77
2022/08/03 03:17:55;;;;;;;14.10;7.70;;;;;;;;;;4996969;28;20516;-77
2022/08/03 03:20:22;;;;;;;12.23;7.53;;;;;;;;;;4990962;28;20470;-76
2022/08/03 03:22:50;;;;;;;18.07;7.07;;;;;;;;;;5017829;28;20815;-77
2022/08/03 03:25:18;;;;;;;12.23;7.33;;;;;;;;;;5008896;28;20484;-77
2022/08/03 03:27:45;;;;;;;12.77;5.90;;;;;;;;;;5020551;28;20492;-77
2022/08/03 03:30:13;;;;;;;12.43;7.43;;;;;;;;;;4968035;28;20496;-77
2022/08/03 03:32:41;;;;;;;19.50;7.90;;;;;;;;;;5016791;28;21196;-76
2022/08/03 03:35:09;;;;;;;20.00;7.70;;;16.70;89.00;;;;;;5004230;28;20908;-77
2022/08/03 03:37:36;;;;;;;20.23;9.43;;;;;;;;;;4981878;28;21020;-77
2022/08/03 03:40:04;;;;;;;35.63;9.27;;;;;;;;;;5006725;28;21236;-78
2022/08/03 03:42:31;;;;;;;28.63;11.70;;;;;;;;;;5022092;28;20484;-77
2022/08/03 03:44:58;;;;;;;25.70;9.20;;;;;;;;;;5002551;28;20488;-77
2022/08/03 03:47:26;;;;;;;22.40;6.83;;;;;;;;;;5029234;28;20874;-76
2022/08/03 03:49:55;;;;;;;19.50;6.90;;;;;;;;;;5015815;28;20488;-76
2022/08/03 03:52:22;;;;;;;14.60;7.60;;;;;;;;;;4990041;28;20479;-76
2022/08/03 03:54:49;;;;;;;41.03;7.77;;;;;;;;;;5030135;28;20540;-76
2022/08/03 03:57:17;;;;;;;15.57;6.87;;;;;;;;;;5017611;28;20515;-77
2022/08/03 03:59:44;;;;;;;20.67;7.90;;;;;;;;;;5008439;28;21179;-76
2022/08/03 04:02:11;;;;;;;22.43;6.57;;;16.80;87.50;;;;;;5001349;28;20582;-76
2022/08/03 04:12:59;;;;;;;15.47;8.30;;;;;;;;;;5020404;28;20483;-76
2022/08/03 04:15:28;;;;;;;51.57;12.43;;;;;;;;;;4961058;28;20496;-76
2022/08/03 04:17:57;;;;;;;42.00;9.07;;;;;;;;;;5025783;28;20499;-75
2022/08/03 04:20:27;;;;;;;21.80;7.83;;;;;;;;;;5021051;28;20488;-76
2022/08/03 04:22:58;;;;;;;11.93;6.37;;;;;;;;;;5025179;28;21271;-76
2022/08/03 04:25:27;;;;;;;14.43;7.60;;;;;;;;;;5020015;28;20550;-76
2022/08/03 04:27:58;;;;;;;15.90;7.53;;;16.80;87.80;;;;;;5024663;28;20519;-76
2022/08/03 04:30:27;;;;;;;23.03;8.50;;;;;;;;;;5023461;28;20480;-75
2022/08/03 04:32:56;;;;;;;14.83;6.40;;;16.80;88.10;;;;;;5024125;28;20481;-76
2022/08/03 04:35:24;;;;;;;27.70;8.77;;;;;;;;;;5017128;28;20471;-76
2022/08/03 04:37:52;;;;;;;33.00;8.23;;;;;;;;;;5025942;28;20564;-75
2022/08/03 04:40:23;;;;;;;14.53;7.03;;;;;;;;;;5023705;28;20542;-75
2022/08/03 04:42:50;;;;;;;16.47;7.00;;;;;;;;;;5023856;28;20488;-75
2022/08/03 04:45:18;;;;;;;27.50;8.33;;;;;;;;;;5010777;28;20527;-75
2022/08/03 04:47:45;;;;;;;16.93;6.17;;;;;;;;;;5021311;28;20476;-75
2022/08/03 04:50:13;;;;;;;18.13;6.97;;;;;;;;;;5023035;28;20495;-75
2022/08/03 04:52:40;;;;;;;41.70;11.10;;;;;;;;;;5023972;28;20483;-75
2022/08/03 04:55:07;;;;;;;22.00;7.70;;;;;;;;;;5021906;28;20475;-75
2022/08/03 04:57:36;;;;;;;29.23;10.90;;;;;;;;;;5022207;28;20558;-76
2022/08/03 05:00:04;;;;;;;28.00;8.37;;;;;;;;;;5021895;28;20481;-75
2022/08/03 05:02:32;;;;;;;37.67;13.00;;;;;;;;;;5025166;28;20482;-75
2022/08/03 05:05:00;;;;;;;15.70;6.33;;;;;;;;;;5021227;28;20491;-75
2022/08/03 05:07:27;;;;;;;30.33;11.23;;;;;;;;;;5018167;28;20538;-75
2022/08/03 05:09:55;;;;;;;16.33;8.27;;;;;;;;;;5022316;28;20840;-75
2022/08/03 05:12:22;;;;;;;38.63;9.87;;;;;;;;;;5025433;28;20886;-75
2022/08/03 05:14:51;;;;;;;24.27;8.20;;;;;;;;;;5019371;28;20480;-75
2022/08/03 05:17:18;;;;;;;22.20;8.80;;;;;;;;;;5018871;28;20488;-76
2022/08/03 05:19:45;;;;;;;16.90;7.03;;;;;;;;;;5014794;28;20919;-75
2022/08/03 05:22:12;;;;;;;24.87;7.50;;;;;;;;;;5019436;28;21050;-75
2022/08/03 05:24:39;;;;;;;28.37;11.50;;;;;;;;;;5018526;28;20481;-75
2022/08/03 05:27:06;;;;;;;17.80;9.30;;;;;;;;;;5019648;28;20484;-75
2022/08/03 05:29:33;;;;;;;35.30;13.50;;;;;;;;;;5021063;28;20491;-76
2022/08/03 05:32:02;;;;;;;18.47;8.00;;;;;;;;;;5020799;28;20496;-76
2022/08/03 05:34:30;;;;;;;40.20;13.53;;;;;;;;;;5018034;28;20489;-76
2022/08/03 05:36:57;;;;;;;26.27;9.47;;;;;;;;;;5020841;28;20509;-75
2022/08/03 05:39:24;;;;;;;36.33;10.83;;;;;;;;;;5021398;28;20485;-75
2022/08/03 05:41:51;;;;;;;32.37;9.87;;;;;;;;;;5023050;28;21123;-75
2022/08/03 05:44:19;;;;;;;23.50;12.57;;;;;;;;;;5013479;28;20476;-75
2022/08/03 05:46:46;;;;;;;18.33;8.00;;;;;;;;;;5007643;28;20481;-74
2022/08/03 05:49:14;;;;;;;33.87;10.30;;;;;;;;;;5009336;28;20485;-76
2022/08/03 05:51:41;;;;;;;35.30;11.80;;;;;;;;;;4995801;28;20476;-76
2022/08/03 05:54:08;;;;;;;32.40;10.73;;;;;;;;;;5016024;28;20481;-75
2022/08/03 05:56:35;;;;;;;48.57;15.20;;;;;;;;;;5017537;28;20492;-76
2022/08/03 05:59:02;;;;;;;29.80;10.80;;;;;;;;;;5019925;28;20515;-73
2022/08/03 06:01:31;;;;;;;43.07;13.60;;;;;;;;;;5020586;28;20481;-74
2022/08/03 06:03:58;;;;;;;57.00;19.37;;;;;;;;;;5002304;28;20517;-75
2022/08/03 06:06:26;;;;;;;35.20;12.53;;;;;;;;;;5012091;28;20484;-76
2022/08/03 06:08:53;;;;;;;29.40;10.70;;;;;;;;;;5011931;28;20484;-74
2022/08/03 06:11:21;;;;;;;40.60;12.37;;;;;;;;;;5011004;28;20481;-75
2022/08/03 06:13:48;;;;;;;66.10;17.40;;;;;;;;;;5011804;28;20491;-75
2022/08/03 06:16:15;;;;;;;43.17;12.60;;;;;;;;;;5013774;28;20469;-76
2022/08/03 06:18:42;;;;;;;59.10;14.63;;;;;;;;;;5014950;28;20973;-76
2022/08/03 06:21:09;;;;;;;47.23;12.80;;;;;;;;;;5011614;28;20493;-75
2022/08/03 06:23:37;;;;;;;60.97;17.27;;;;;;;;;;5012505;28;20484;-77
2022/08/03 06:26:05;;;;;;;40.17;11.67;;;;;;;;;;5016439;28;20530;-75
2022/08/03 06:28:32;;;;;;;64.23;15.00;;;;;;;;;;5012136;28;20480;-76
2022/08/03 06:31:00;;;;;;;28.80;9.33;;;;;;;;;;5015149;28;20496;-77
2022/08/03 06:33:27;;;;;;;56.33;15.50;;;;;;;;;;5011682;28;20580;-76
2022/08/03 06:35:55;;;;;;;36.40;11.70;;;;;;;;;;5009346;28;20845;-76
2022/08/03 06:38:22;;;;;;;43.10;11.27;;;;;;;;;;4999362;28;20473;-75
2022/08/03 06:40:50;;;;;;;30.47;10.90;;;;;;;;;;5009690;28;20479;-75
2022/08/03 06:43:17;;;;;;;35.80;11.27;;;;;;;;;;5011799;28;21179;-77
2022/08/03 06:45:45;;;;;;;27.63;9.60;;;;;;;;;;5007849;28;20496;-77
2022/08/03 06:48:13;;;;;;;40.17;12.00;;;;;;;;;;5013704;28;20495;-78
2022/08/03 06:50:41;;;;;;;68.80;16.07;;;;;;;;;;5012577;28;20547;-77
2022/08/03 06:53:09;;;;;;;50.53;12.03;;;23.20;86.80;;;;;;5012049;28;20481;-76
2022/08/03 06:55:36;;;;;;;62.57;14.07;;;;;;;;;;5009758;28;21018;-76
2022/08/03 06:58:04;;;;;;;47.47;10.87;;;;;;;;;;5011536;28;20937;-77
2022/08/03 07:00:31;;;;;;;93.27;17.67;;;;;;;;;;5011599;28;20582;-78
2022/08/03 07:02:59;;;;;;;33.27;9.60;;;;;;;;;;5013821;28;20485;-78
2022/08/03 07:05:26;;;;;;;51.97;12.90;;;;;;;;;;5006628;28;20485;-78
2022/08/03 07:07:55;;;;;;;57.23;10.97;;;;;;;;;;5013130;28;20500;-78
2022/08/03 07:10:22;;;;;;;28.60;10.63;;;;;;;;;;5009333;28;20476;-77
2022/08/03 07:12:49;;;;;;;22.57;8.43;;;;;;;;;;5013384;28;21134;-78
2022/08/03 07:15:18;;;;;;;44.63;9.43;;;;;;;;;;5003844;28;20488;-78
2022/08/03 07:17:45;;;;;;;43.20;11.27;;;;;;;;;;5020408;28;20543;-78
2022/08/03 07:20:14;;;;;;;47.87;11.77;;;;;;;;;;5013497;28;20492;-77
2022/08/03 07:22:41;;;;;;;61.83;13.20;;;;;;;;;;4998141;28;20481;-79
2022/08/03 07:25:08;;;;;;;26.83;8.57;;;;;;;;;;5009412;28;20506;-78
2022/08/03 07:27:35;;;;;;;93.23;17.30;;;;;;;;;;5009606;28;20538;-81
2022/08/03 07:30:02;;;;;;;52.87;11.63;;;;;;;;;;5012387;28;20509;-77
2022/08/03 07:32:31;;;;;;;68.87;14.40;;;;;;;;;;5013161;28;20480;-79
2022/08/03 07:34:58;;;;;;;33.27;8.83;;;;;;;;;;5008130;28;20485;-78
2022/08/03 07:37:25;;;;;;;32.50;9.87;;;;;;;;;;5012204;28;20480;-79
2022/08/03 07:39:52;;;;;;;28.50;9.30;;;;;;;;;;5011180;28;20485;-78
2022/08/03 07:42:22;;;;;;;37.17;10.00;;;;;;;;;;5012672;28;21621;-77
2022/08/03 07:44:49;;;;;;;37.67;10.60;;;;;;;;;;5008840;28;20480;-78
2022/08/03 07:47:18;;;;;;;29.03;9.97;;;;;;;;;;5012223;28;20485;-78
2022/08/03 07:49:47;;;;;;;24.37;9.07;;;;;;;;;;5010304;28;21112;-76
2022/08/03 07:54:58;;;;;;;16.97;7.20;;;;;;;;;;5008938;28;21043;-78
2022/08/03 07:57:26;;;;;;;26.70;8.77;;;;;;;;;;5013839;28;20833;-79
2022/08/03 07:59:53;;;;;;;18.70;8.80;;;;;;;;;;5017841;28;20543;-79
2022/08/03 08:02:20;;;;;;;12.13;6.97;;;;;;;;;;5010928;28;20484;-77
2022/08/03 08:04:48;;;;;;;34.93;9.30;;;;;;;;;;5015188;28;21048;-79
2022/08/03 08:07:15;;;;;;;17.10;7.83;;;;;;;;;;5012524;28;20488;-78
2022/08/03 08:09:42;;;;;;;22.80;10.57;;;;;;;;;;5010884;28;20480;-78
2022/08/03 08:12:11;;;;;;;13.57;6.57;;;;;;;;;;5014161;28;20480;-78
2022/08/03 08:14:38;;;;;;;20.73;9.70;;;;;;;;;;4995445;28;20472;-78
2022/08/03 08:17:05;;;;;;;12.03;7.23;;;;;;;;;;5009817;28;20476;-78
2022/08/03 08:19:32;;;;;;;24.60;11.40;;;;;;;;;;5018839;28;20494;-78
2022/08/03 08:22:01;;;;;;;11.67;6.57;;;;;;;;;;5015220;28;20969;-80
2022/08/03 08:24:29;;;;;;;21.57;9.30;;;;;;;;;;5032705;28;20457;-79
2022/08/03 08:26:56;;;;;;;17.63;8.63;;;;;;;;;;5013448;28;20575;-79
2022/08/03 08:29:23;;;;;;;17.77;7.80;;;;;;;;;;5009798;28;21003;-77
2022/08/03 08:31:50;;;;;;;16.37;6.27;;;;;;;;;;5008619;28;20483;-78
2022/08/03 08:34:17;;;;;;;14.40;7.23;;;;;;;;;;5001685;28;20485;-78
2022/08/03 08:36:45;;;;;;;18.67;7.87;;;;;;;;;;5003838;28;20460;-79
2022/08/03 08:39:13;;;;;;;17.37;6.00;;;;;;;;;;5004315;28;20446;-79
2022/08/03 08:41:41;;;;;;;17.73;9.63;;;;;;;;;;5018680;28;20451;-78
2022/08/03 08:44:09;;;;;;;13.60;8.03;;;34.20;55.70;;;;;;5009865;28;20466;-79
2022/08/03 08:46:37;;;;;;;21.73;11.60;;;;;;;;;;5012216;28;20481;-78
2022/08/03 08:49:04;;;;;;;7.17;5.47;;;;;;;;;;5014446;28;20476;-77
2022/08/03 08:51:34;;;;;;;18.40;9.70;;;;;;;;;;5013594;28;20494;-78
2022/08/03 08:54:03;;;;;;;31.43;9.33;;;;;;;;;;5010740;28;20869;-80
2022/08/03 08:56:32;;;;;;;20.53;9.70;;;;;;;;;;5012760;28;20439;-81
2022/08/03 08:59:01;;;;;;;13.37;6.60;;;35.10;53.60;;;;;;5013787;28;21198;-80
2022/08/03 09:01:29;;;;;;;28.97;9.70;;;;;;;;;;5015668;28;21033;-80
2022/08/03 09:03:56;;;;;;;19.60;9.10;;;;;;;;;;5003503;28;20474;-82
2022/08/03 09:06:27;;;;;;;12.27;6.80;;;35.40;52.20;;;;;;5015056;28;20464;-81
2022/08/03 09:08:54;;;;;;;14.67;7.93;;;;;;;;;;5015592;28;20926;-82
2022/08/03 09:11:22;;;;;;;11.20;6.10;;;;;;;;;;5015056;28;20458;-81
2022/08/03 09:13:50;;;;;;;19.90;8.43;;;;;;;;;;5013721;28;20463;-81
2022/08/03 09:16:18;;;;;;;13.13;7.00;;;;;;;;;;5015844;28;20455;-83
2022/08/03 09:18:47;;;;;;;17.20;8.43;;;;;;;;;;5016982;28;20479;-83
2022/08/03 09:21:15;;;;;;;37.53;6.90;;;;;;;;;;5017286;28;20990;-83
2022/08/03 09:23:47;;;;;;;25.67;11.07;;;;;;;;;;5014878;28;20455;-83
2022/08/03 09:26:20;;;;;;;10.70;6.87;;;;;;;;;;5013817;28;20538;-82
2022/08/03 09:28:47;;;;;;;18.53;6.13;;;;;;;;;;5005756;28;20996;-79
2022/08/03 09:31:15;;;;;;;6.60;5.53;;;;;;;;;;5029428;28;20459;-80
2022/08/03 09:33:48;;;;;;;27.47;12.33;;;;;;;;;;5012447;28;21027;-80
2022/08/03 09:36:30;;;;;;;10.20;5.33;;;;;;;;;;5018119;28;20443;-81
2022/08/03 09:39:03;;;;;;;10.70;5.87;;;;;;;;;;4999970;28;20463;-81
2022/08/03 09:41:30;;;;;;;19.40;8.60;;;;;;;;;;5011298;28;20801;-79
2022/08/03 09:43:57;;;;;;;22.13;8.70;;;;;;;;;;5013456;28;20458;-81
2022/08/03 09:46:30;;;;;;;12.47;5.90;;;;;;;;;;5017224;28;20467;-79
2022/08/03 09:49:14;;;;;;;10.80;5.10;;;;;;;;;;5004608;28;20449;-82
2022/08/03 09:51:41;;;;;;;43.50;9.23;;;;;;;;;;5015959;28;20447;-82
2022/08/03 09:54:09;;;;;;;5.43;4.70;;;36.60;49.00;;;;;;5017665;28;20459;-82
2022/08/03 09:56:43;;;;;;;6.67;6.00;;;36.40;49.70;;;;;;5001672;28;20511;-81
2022/08/03 09:59:11;;;;;;;13.03;4.37;;;36.40;48.40;;;;;;5008343;28;20486;-78
2022/08/03 10:01:41;;;;;;;8.70;6.20;;;36.30;48.40;;;;;;4998239;28;20463;-77
2022/08/03 10:04:15;;;;;;;7.90;5.43;;;36.30;50.40;;;;;;5007192;28;20473;-77
2022/08/03 10:06:44;;;;;;;12.63;7.50;;;;;;;;;;5000277;28;20454;-78
2022/08/03 10:09:13;;;;;;;8.37;5.73;;;36.30;49.80;;;;;;5034814;28;20457;-78
2022/08/03 10:11:41;;;;;;;24.83;9.80;;;36.30;47.80;;;;;;5019755;28;20546;-79
2022/08/03 10:14:10;;;;;;;9.40;5.10;;;35.70;47.30;;;;;;5007323;28;21072;-77
2022/08/03 10:16:38;;;;;;;19.93;7.80;;;;;;;;;;5014413;28;20461;-79
2022/08/03 10:19:09;;;;;;;24.87;7.40;;;;;;;;;;5009300;28;21012;-77
2022/08/03 10:21:38;;;;;;;26.63;9.33;;;;;;;;;;5026801;28;21089;-77
2022/08/03 10:24:06;;;;;;;9.07;4.90;;;;;;;;;;5019532;28;20448;-80
2022/08/03 10:26:35;;;;;;;24.83;10.10;;;;;;;;;;5014451;28;20447;-76
2022/08/03 10:29:06;;;;;;;12.70;6.50;;;;;;;;;;5014956;28;20484;-79
2022/08/03 10:31:36;;;;;;;32.57;11.67;;;;;;;;;;5010606;28;20455;-79
2022/08/03 10:34:05;;;;;;;26.93;6.50;;;;;;;;;;5001802;28;20514;-78
2022/08/03 10:36:34;;;;;;;25.03;10.30;;;;;;;;;;5008086;28;20459;-79
2022/08/03 10:39:02;;;;;;;32.93;8.80;;;;;;;;;;5006728;28;20486;-75
2022/08/03 10:41:32;;;;;;;19.80;9.07;;;;;;;;;;5004576;28;20964;-77
2022/08/03 10:44:03;;;;;;;13.40;7.03;;;;;;;;;;5008053;28;20488;-77
2022/08/03 10:46:30;;;;;;;20.93;9.50;;;34.80;48.70;;;;;;5013002;28;20485;-76
2022/08/03 10:48:58;;;;;;;10.80;6.23;;;;;;;;;;5010425;28;21069;-77
2022/08/03 10:51:30;;;;;;;17.97;8.90;;;;;;;;;;5011863;28;20488;-79
2022/08/03 10:53:59;;;;;;;10.87;5.80;;;;;;;;;;5013190;28;20527;-79
2022/08/03 10:59:38;;;;;;;17.20;6.47;;;;;;;;;;5003460;28;20454;-79
2022/08/03 11:02:08;;;;;;;20.57;5.60;;;;;;;;;;5013032;28;20463;-79
2022/08/03 11:04:36;;;;;;;19.50;8.77;;;;;;;;;;5012289;28;20513;-80
2022/08/03 11:07:20;;;;;;;16.53;5.87;;;;;;;;;;5013190;28;20455;-79
2022/08/03 11:09:50;;;;;;;9.60;5.63;;;;;;;;;;5011010;28;20480;-79
2022/08/03 11:12:21;;;;;;;12.30;5.03;;;;;;;;;;5014243;28;20456;-80
2022/08/03 11:14:50;;;;;;;17.27;7.17;;;35.50;47.10;;;;;;5011438;28;20463;-78
2022/08/03 11:17:17;;;;;;;10.37;5.87;;;;;;;;;;5007408;28;20477;-77
2022/08/03 11:19:46;;;;;;;14.20;6.80;;;35.50;49.00;;;;;;5014814;28;20454;-80
2022/08/03 11:22:15;;;;;;;9.10;4.80;;;;;;;;;;5016080;28;20488;-78
2022/08/03 11:24:59;;;;;;;13.80;6.70;;;;;;;;;;5013799;28;20459;-77
2022/08/03 11:27:28;;;;;;;23.57;6.50;;;;;;;;;;4984837;28;20460;-78
2022/08/03 11:29:57;;;;;;;8.33;4.97;;;;;;;;;;5013804;28;20454;-80
2022/08/03 11:32:45;;;;;;;13.27;5.43;;;;;;;;;;5018665;28;20740;-81
2022/08/03 11:35:15;;;;;;;9.60;5.60;;;36.10;48.40;;;;;;5013467;28;20551;-80
2022/08/03 11:37:57;;;;;;;11.63;5.87;;;;;;;;;;5013877;28;20462;-79
2022/08/03 11:40:40;;;;;;;13.17;6.67;;;;;;;;;;4999135;28;20484;-80
2022/08/03 11:43:09;;;;;;;20.17;5.50;;;35.80;46.40;;;;;;5007072;28;20907;-78
2022/08/03 11:45:37;;;;;;;21.13;9.80;;;35.80;47.70;;;;;;5015600;28;20454;-79
2022/08/03 11:48:13;;;;;;;14.60;5.20;;;;;;;;;;5023596;28;20490;-78
2022/08/03 11:50:44;;;;;;;16.70;7.70;;;;;;;;;;5014287;28;20476;-77
2022/08/03 11:53:16;;;;;;;15.40;7.20;;;;;;;;;;5012545;28;20936;-79
2022/08/03 11:55:47;;;;;;;26.77;6.20;;;;;;;;;;5009879;28;20567;-81
2022/08/03 11:58:22;;;;;;;12.10;6.27;;;;;;;;;;5012359;28;20490;-77
2022/08/03 12:00:49;;;;;;;11.97;5.10;;;;;;;;;;5003062;28;20769;-79
2022/08/03 12:03:18;;;;;;;13.70;6.70;;;36.00;46.40;;;;;;5012364;28;20455;-79
2022/08/03 12:05:47;;;;;;;16.40;7.43;;;;;;;;;;5005342;28;20476;-77
2022/08/03 12:08:16;;;;;;;40.83;6.60;;;35.80;46.60;;;;;;5013133;28;20871;-78
2022/08/03 12:10:49;;;;;;;6.60;5.30;;;;;;;;;;5012606;28;20530;-77
2022/08/03 12:13:17;;;;;;;15.83;6.07;;;;;;;;;;4990824;28;20959;-80
2022/08/03 12:15:44;;;;;;;18.10;5.23;;;;;;;;;;5003882;28;20799;-77
2022/08/03 12:18:16;;;;;;;9.53;5.27;;;;;;;;;;4997885;28;20477;-81
2022/08/03 12:20:43;;;;;;;15.30;6.83;;;;;;;;;;5010823;28;20462;-80
2022/08/03 12:23:10;;;;;;;9.27;4.60;;;;;;;;;;5013404;28;20454;-78
2022/08/03 12:25:40;;;;;;;27.90;9.57;;;;;;;;;;5020553;28;20458;-79
2022/08/03 12:28:15;;;;;;;39.70;6.83;;;36.20;46.20;;;;;;5015580;28;20458;-78
2022/08/03 12:30:42;;;;;;;17.07;6.90;;;36.50;46.60;;;;;;5010438;28;20577;-82
2022/08/03 12:33:20;;;;;;;12.83;6.63;;;;;;;;;;5014116;28;20451;-81
2022/08/03 12:36:02;;;;;;;9.53;5.43;;;36.90;46.30;;;;;;5007553;28;20516;-82
2022/08/03 12:38:30;;;;;;;17.80;7.60;;;;;;;;;;5013882;28;20487;-78
2022/08/03 12:41:02;;;;;;;11.13;5.60;;;36.90;46.00;;;;;;5015971;28;20627;-82
2022/08/03 12:43:31;;;;;;;17.70;7.63;;;;;;;;;;5015145;28;20456;-78
2022/08/03 12:46:22;;;;;;;28.60;5.80;;;;;;;;;;5020354;28;20492;-82
2022/08/03 12:48:59;;;;;;;15.77;7.70;;;;;;;;;;4985433;28;20926;-78
2022/08/03 12:51:28;;;;;;;26.40;6.97;;;;;;;;;;5014943;28;20548;-79
2022/08/03 12:53:55;;;;;;;18.73;7.50;;;;;;;;;;5017014;28;20509;-79
2022/08/03 12:56:22;;;;;;;13.27;5.73;;;;;;;;;;5018490;28;20483;-77
2022/08/03 12:58:51;;;;;;;19.23;7.30;;;;;;;;;;5017869;28;21033;-79
2022/08/03 13:01:21;;;;;;;13.83;5.43;;;;;;;;;;5018084;28;20447;-79
2022/08/03 13:03:49;;;;;;;33.60;10.40;;;;;;;;;;5021543;28;20457;-78
2022/08/03 13:06:17;;;;;;;9.80;4.83;;;;;;;;;;5016444;28;20447;-79
2022/08/03 13:08:46;;;;;;;28.20;10.07;;;;;;;;;;5017322;28;20459;-77
2022/08/03 13:11:20;;;;;;;50.13;7.70;;;;;;;;;;5017950;28;20611;-76
2022/08/03 13:13:48;;;;;;;24.23;8.57;;;;;;;;;;5003279;28;20465;-77
2022/08/03 13:16:17;;;;;;;15.23;6.37;;;;;;;;;;5015691;28;20811;-76
2022/08/03 13:18:45;;;;;;;32.63;8.67;;;;;;;;;;5015286;28;21220;-77
2022/08/03 13:21:14;;;;;;;13.30;6.77;;;;;;;;;;5017522;28;20654;-80
2022/08/03 13:23:41;;;;;;;29.23;12.10;;;;;;;;;;5000326;28;20447;-80
2022/08/03 13:26:08;;;;;;;11.93;5.63;;;;;;;;;;5012247;28;20447;-81
2022/08/03 13:28:35;;;;;;;34.43;11.10;;;;;;;;;;5015337;28;21004;-80
2022/08/03 13:31:03;;;;;;;16.10;6.70;;;;;;;;;;5013892;28;20464;-79
2022/08/03 13:33:31;;;;;;;25.43;8.87;;;;;;;;;;5017452;28;20451;-80
2022/08/03 13:35:58;;;;;;;14.23;6.03;;;;;;;;;;5012871;28;20910;-78
2022/08/03 13:38:26;;;;;;;27.20;7.47;;;;;;;;;;5014311;28;20488;-78
2022/08/03 13:40:54;;;;;;;14.00;5.90;;;;;;;;;;5014734;28;20737;-78
2022/08/03 13:43:21;;;;;;;12.73;5.40;;;;;;;;;;4998238;28;20456;-78
2022/08/03 13:45:48;;;;;;;18.03;7.13;;;;;;;;;;5010870;28;20894;-79
2022/08/03 13:48:17;;;;;;;20.10;7.37;;;;;;;;;;5015308;28;20992;-79
2022/08/03 13:50:45;;;;;;;13.17;5.30;;;38.00;42.80;;;;;;5014413;28;20497;-77
2022/08/03 13:53:12;;;;;;;16.50;6.03;;;;;;;;;;5016578;28;20452;-77
2022/08/03 13:55:39;;;;;;;31.80;10.03;;;;;;;;;;5012920;28;20473;-77
2022/08/03 13:58:11;;;;;;;24.17;7.83;;;;;;;;;;5016342;28;20455;-77
2022/08/03 14:00:39;;;;;;;40.07;9.20;;;;;;;;;;5019032;28;20450;-79
2022/08/03 14:03:06;;;;;;;20.27;7.60;;;;;;;;;;5015364;28;20512;-79
2022/08/03 14:05:34;;;;;;;42.43;11.73;;;;;;;;;;5013965;28;20955;-80
2022/08/03 14:08:05;;;;;;;32.70;8.03;;;;;;;;;;5015649;28;20937;-81
2022/08/03 14:10:34;;;;;;;33.87;11.10;;;;;;;;;;4994556;28;20484;-79
2022/08/03 14:13:01;;;;;;;16.90;6.70;;;;;;;;;;5008726;28;20712;-79
2022/08/03 14:15:29;;;;;;;26.20;8.27;;;;;;;;;;5000273;28;20484;-81
2022/08/03 14:17:56;;;;;;;19.60;6.60;;;;;;;;;;5014330;28;20455;-76
2022/08/03 14:20:24;;;;;;;19.63;6.33;;;;;;;;;;5013562;28;20474;-80
2022/08/03 14:22:52;;;;;;;27.23;6.50;;;;;;;;;;5015912;28;20492;-80
2022/08/03 14:25:21;;;;;;;10.20;4.90;;;;;;;;;;4999590;28;20485;-79
2022/08/03 14:27:48;;;;;;;21.13;6.80;;;;;;;;;;5026813;28;20456;-80
2022/08/03 14:30:15;;;;;;;18.37;6.20;;;;;;;;;;5013726;28;20491;-79
2022/08/03 14:32:42;;;;;;;29.70;8.70;;;;;;;;;;5011897;28;20484;-79
2022/08/03 14:35:09;;;;;;;21.00;6.77;;;;;;;;;;5012277;28;20539;-78